Sunday, October 22, 2017, 8:23 PM EDT
Back to Local

KTAN, Taunton Municipal Airport

Location: East Taunton, MA, United States Lat: 41.883
Local Time: 8:23 PM EDT ( 0:23 GMT) Lon: -71.017
Time Zone: US/Eastern Elev: 42 ft

Show me the last for .
Show Decoded

2017-10-22 19:52 METAR KTAN 222352Z AUTO 00000KT 10SM CLR 12/11 A3039 RMK AO2 SLP290 T01170106
                 10267 20111 51007 =
2017-10-22 18:52 METAR KTAN 222252Z AUTO 00000KT 10SM CLR 13/11 A3039 RMK AO2 SLP290 T01330111 =
2017-10-22 17:52 METAR KTAN 222152Z AUTO 00000KT 10SM CLR 16/12 A3038 RMK AO2 SLP286 T01610117 =
2017-10-22 16:52 METAR KTAN 222052Z AUTO 14004KT 10SM CLR 22/11 A3037 RMK AO2 SLP283 T02220106
                 53001 =
2017-10-22 15:52 METAR KTAN 221952Z AUTO 15004KT 10SM CLR 24/12 A3036 RMK AO2 SLP280 T02390117 =
2017-10-22 14:52 METAR KTAN 221852Z AUTO 11004KT 10SM CLR 26/09 A3036 RMK AO2 SLP280 T02610094 =
2017-10-22 13:52 METAR KTAN 221752Z AUTO 12004KT 10SM CLR 26/09 A3036 RMK AO2 SLP282 T02610094
                 10261 20072 56012 =
2017-10-22 12:52 METAR KTAN 221652Z AUTO 12003KT 10SM CLR 24/10 A3038 RMK AO2 SLP286 T02440100 =
2017-10-22 11:52 METAR KTAN 221552Z AUTO 00000KT 10SM CLR 23/09 A3039 RMK AO2 SLP290 T02330094 =
2017-10-22 10:52 METAR KTAN 221452Z AUTO 00000KT 10SM CLR 21/09 A3040 RMK AO2 SLP294 T02060094
                 50003 =
2017-10-22 09:52 METAR KTAN 221352Z AUTO 00000KT 10SM CLR 17/11 A3041 RMK AO2 SLP298 T01720111 =
2017-10-22 08:52 METAR KTAN 221252Z AUTO 00000KT 10SM CLR 12/09 A3041 RMK AO2 SLP298 T01170094 =
2017-10-22 07:52 METAR KTAN 221152Z AUTO 00000KT 10SM CLR 07/06 A3039 RMK AO2 SLP291 T00720061
                 10072 20050 53014 =
2017-10-22 07:00 METAR KTAN 221100Z AUTO 00000KT 3SM BR CLR 05/04 A3037 RMK AO2 T00500039 =
2017-10-22 06:52 METAR KTAN 221052Z AUTO 00000KT 1 3/4SM BR CLR 06/04 A3037 RMK AO2 SLP284
                 T00560044 =
2017-10-22 05:52 METAR KTAN 220952Z AUTO 00000KT 9SM CLR 06/05 A3036 RMK AO2 SLP281 T00610050 =
2017-10-22 04:52 METAR KTAN 220852Z AUTO 00000KT 10SM CLR 06/05 A3035 RMK AO2 SLP277 T00610050
                 53004 =
2017-10-22 03:52 METAR KTAN 220752Z AUTO 00000KT 6SM BR CLR 06/05 A3034 RMK AO2 SLP274 T00610050
                 =
2017-10-22 03:10 METAR KTAN 220710Z AUTO 00000KT 3SM BR CLR 06/04 A3034 RMK AO2 T00560044 =
2017-10-22 02:52 METAR KTAN 220652Z AUTO 00000KT 2 1/2SM BR CLR 06/05 A3033 RMK AO2 VIS 1 1/4V5
                 SLP272 T00610050 =
2017-10-22 02:42 METAR KTAN 220642Z AUTO 00000KT 3SM BR CLR 07/06 A3033 RMK AO2 T00670056 =
2017-10-22 02:15 METAR KTAN 220615Z AUTO 00000KT 1 3/4SM BR CLR 07/06 A3034 RMK AO2 VIS 1 1/4V4
                 T00670056 =
2017-10-22 02:02 METAR KTAN 220602Z AUTO 00000KT 10SM CLR 07/06 A3034 RMK AO2 T00670056 =
2017-10-22 01:54 METAR KTAN 220554Z AUTO 00000KT 2SM BR CLR 07/06 A3034 RMK AO2 T00670061 =
2017-10-22 01:52 METAR KTAN 220552Z AUTO 00000KT 1 1/4SM BR CLR 07/07 A3034 RMK AO2 SLP273
                 T00720067 10161 20072 53001 =
2017-10-22 01:45 METAR KTAN 220545Z AUTO 00000KT 3/4SM BR CLR 07/06 A3034 RMK AO2 T00720061 =
2017-10-22 01:40 METAR KTAN 220540Z AUTO 00000KT 1 3/4SM BR CLR 07/07 A3033 RMK AO2 T00720067 =
2017-10-22 01:06 METAR KTAN 220506Z AUTO 00000KT 8SM CLR 08/07 A3033 RMK AO2 T00780067 =
2017-10-22 00:52 METAR KTAN 220452Z AUTO 00000KT 2 1/2SM BR CLR 08/07 A3033 RMK AO2 VIS 1V5
                 SLP272 T00780067 402330022 =
2017-10-21 23:52 METAR KTAN 220352Z AUTO 00000KT 7SM CLR 08/07 A3033 RMK AO2 SLP271 T00830072 =
2017-10-21 22:52 METAR KTAN 220252Z AUTO 00000KT 10SM CLR 09/08 A3033 RMK AO2 SLP272 T00890078
                 51010 =
2017-10-21 21:52 METAR KTAN 220152Z AUTO 00000KT 10SM CLR 10/08 A3033 RMK AO2 SLP269 T01000083 =
2017-10-21 20:52 METAR KTAN 220052Z AUTO 00000KT 10SM CLR 14/09 A3032 RMK AO2 SLP266 T01390089 =

Support USWX by starting your Amazon purchase here.